Time;durP1;ratioP1;P1;durP2;ratioP2;P2;SDS_P1;SDS_P2;PMS_P1;PMS_P2;Temp;Humidity;BMP_temperature;BMP_pressure;BME280_temperature;BME280_humidity;BME280_pressure;Samples;Min_cycle;Max_cycle;Signal;HPM_P1;HPM_P2
2021/07/26 00:01:30;;;;;;;4.30;4.00;;;16.40;99.90;;;;;;6237555;22;20193;-90
2021/07/26 00:03:56;;;;;;;5.07;4.67;;;16.50;99.90;;;;;;6237757;22;20159;-91
2021/07/26 00:06:21;;;;;;;6.23;5.33;;;16.70;99.90;;;;;;6236973;22;20502;-90
2021/07/26 00:08:57;;;;;;;5.00;4.50;;;16.50;99.90;;;;;;6242386;22;20154;-91
2021/07/26 00:11:23;;;;;;;6.07;4.73;;;16.40;99.90;;;;;;6274260;22;20476;-91
2021/07/26 00:13:48;;;;;;;4.70;4.30;;;16.30;99.90;;;;;;6264803;22;20761;-89
2021/07/26 00:16:14;;;;;;;4.00;3.70;;;16.30;99.90;;;;;;6266416;22;20600;-89
2021/07/26 00:18:40;;;;;;;4.40;4.00;;;16.30;99.90;;;;;;6239030;22;20253;-89
2021/07/26 00:21:05;;;;;;;4.87;4.47;;;16.30;99.90;;;;;;6240809;22;20213;-88
2021/07/26 00:23:31;;;;;;;4.53;4.10;;;16.30;99.90;;;;;;6241033;22;20518;-90
2021/07/26 00:25:57;;;;;;;4.23;3.90;;;16.40;99.90;;;;;;6269683;22;20153;-89
2021/07/26 00:28:23;;;;;;;5.23;4.40;;;16.50;99.90;;;;;;6269359;22;20485;-89
2021/07/26 00:30:48;;;;;;;5.37;4.20;;;16.60;99.90;;;;;;6245094;22;20493;-91
2021/07/26 00:34:06;;;;;;;5.23;4.80;;;16.60;99.90;;;;;;6237288;22;20393;-91
2021/07/26 00:36:44;;;;;;;5.63;5.13;;;16.70;99.90;;;;;;6235997;22;20166;-91
2021/07/26 00:39:12;;;;;;;5.73;5.20;;;16.60;99.90;;;;;;6237755;22;20420;-91
2021/07/26 00:41:39;;;;;;;5.90;5.37;;;16.70;99.90;;;;;;6239836;22;20451;-90
2021/07/26 00:44:05;;;;;;;6.20;5.60;;;16.60;99.90;;;;;;6237864;22;20397;-90
2021/07/26 00:46:31;;;;;;;8.60;5.50;;;16.60;99.90;;;;;;6266978;22;20869;-90
2021/07/26 00:48:57;;;;;;;6.17;5.57;;;16.60;99.90;;;;;;6240454;22;20877;-90
2021/07/26 00:51:25;;;;;;;7.83;5.40;;;16.60;99.90;;;;;;6239934;22;20935;-90
2021/07/26 00:54:03;;;;;;;6.83;5.63;;;16.60;99.90;;;;;;6266408;22;21207;-89
2021/07/26 00:56:30;;;;;;;6.00;5.50;;;16.60;99.90;;;;;;6267478;22;20412;-89
2021/07/26 00:58:56;;;;;;;8.67;6.43;;;16.40;99.90;;;;;;6266134;22;20719;-89
2021/07/26 01:01:22;;;;;;;8.43;5.40;;;16.50;99.90;;;;;;6241123;22;20440;-88
2021/07/26 01:03:47;;;;;;;6.60;6.00;;;16.40;99.90;;;;;;6237183;22;21008;-89
2021/07/26 01:06:13;;;;;;;8.93;6.10;;;16.50;99.90;;;;;;6239161;22;20170;-90
2021/07/26 01:08:45;;;;;;;7.50;5.77;;;16.40;99.90;;;;;;6235044;22;20486;-89
2021/07/26 01:11:27;;;;;;;7.97;6.10;;;16.40;99.90;;;;;;6263796;22;20150;-88
2021/07/26 01:13:53;;;;;;;8.13;6.00;;;16.40;99.90;;;;;;6264562;22;20449;-91
2021/07/26 01:16:19;;;;;;;6.87;6.17;;;16.30;99.90;;;;;;6264715;22;20381;-91
2021/07/26 01:18:45;;;;;;;7.53;6.83;;;16.30;99.90;;;;;;6264055;22;20146;-91
2021/07/26 01:21:16;;;;;;;7.17;6.10;;;16.30;99.90;;;;;;6267907;22;20256;-92
2021/07/26 01:23:47;;;;;;;8.93;6.33;;;16.30;99.90;;;;;;6216202;22;20567;-91
2021/07/26 01:26:22;;;;;;;6.97;5.93;;;16.30;99.90;;;;;;6238204;22;20389;-92
2021/07/26 01:28:55;;;;;;;6.23;5.60;;;16.30;99.90;;;;;;6260940;22;20422;-91
2021/07/26 01:31:21;;;;;;;9.83;6.17;;;16.30;99.90;;;;;;6264491;22;20439;-92
2021/07/26 01:33:48;;;;;;;6.73;6.00;;;16.20;99.90;;;;;;6267267;22;20377;-91
2021/07/26 01:36:17;;;;;;;6.33;5.73;;;16.40;99.90;;;;;;6239858;22;20385;-92
2021/07/26 01:38:45;;;;;;;5.77;5.17;;;16.50;99.90;;;;;;6237350;22;20769;-91
2021/07/26 01:41:12;;;;;;;6.30;5.70;;;16.50;99.90;;;;;;6239733;22;20981;-92
2021/07/26 01:44:23;;;;;;;5.40;4.90;;;16.50;99.90;;;;;;6265170;22;20393;-91
2021/07/26 01:46:39;;;;;;;6.80;5.27;;;16.60;99.90;;;;;;6242984;22;20377;-92
2021/07/26 01:49:42;;;;;;;6.33;5.60;;;16.60;99.90;;;;;;6267779;22;20932;-91
2021/07/26 01:52:09;;;;;;;5.77;5.27;;;16.50;99.90;;;;;;6266337;22;20373;-91
2021/07/26 01:54:35;;;;;;;5.87;5.27;;;16.50;99.90;;;;;;6237848;22;20970;-92
2021/07/26 01:57:01;;;;;;;5.60;5.10;;;16.50;99.90;;;;;;6240318;22;20408;-92
2021/07/26 01:59:30;;;;;;;6.63;6.00;;;16.50;99.90;;;;;;6237674;22;20240;-92
2021/07/26 02:01:56;;;;;;;7.67;5.47;;;16.60;99.90;;;;;;6266903;22;20758;-92
2021/07/26 02:04:22;;;;;;;7.57;4.90;;;16.50;99.90;;;;;;6237373;22;20381;-91
2021/07/26 02:06:48;;;;;;;7.10;5.10;;;16.40;99.90;;;;;;6264487;22;20492;-90
2021/07/26 02:09:14;;;;;;;7.83;5.87;;;16.40;99.90;;;;;;6238856;22;20162;-91
2021/07/26 02:11:40;;;;;;;6.60;6.00;;;16.40;99.90;;;;;;6268929;22;20418;-91
2021/07/26 02:14:09;;;;;;;5.90;5.30;;;16.30;99.90;;;;;;6267491;22;20933;-91
2021/07/26 02:16:39;;;;;;;5.60;5.10;;;16.40;99.90;;;;;;6267956;22;20747;-91
2021/07/26 02:19:05;;;;;;;6.63;5.40;;;16.30;99.90;;;;;;6239622;22;20389;-92
2021/07/26 02:21:31;;;;;;;7.13;5.73;;;16.40;99.90;;;;;;6276084;22;20619;-89
2021/07/26 02:23:57;;;;;;;6.73;6.03;;;16.30;99.90;;;;;;6279962;22;20404;-91
2021/07/26 02:26:23;;;;;;;7.70;6.57;;;16.40;99.90;;;;;;6267999;22;20881;-91
2021/07/26 02:28:49;;;;;;;7.10;5.70;;;16.40;99.90;;;;;;6239975;22;20184;-92
2021/07/26 02:31:14;;;;;;;7.03;6.33;;;16.30;99.90;;;;;;6243631;22;20166;-91
2021/07/26 02:33:40;;;;;;;6.33;5.40;;;16.40;99.90;;;;;;6258877;22;20244;-91
2021/07/26 02:36:06;;;;;;;6.57;5.03;;;16.40;99.90;;;;;;6288199;22;20158;-90
2021/07/26 02:38:32;;;;;;;8.33;5.73;;;16.40;99.90;;;;;;6267592;22;20574;-91
2021/07/26 02:40:58;;;;;;;6.47;5.87;;;16.40;99.90;;;;;;6238631;22;20181;-91
2021/07/26 02:43:23;;;;;;;6.17;5.63;;;16.40;99.90;;;;;;6238770;22;20405;-91
2021/07/26 02:45:49;;;;;;;10.47;6.00;;;16.40;99.90;;;;;;6267820;22;20488;-91
2021/07/26 02:48:15;;;;;;;6.40;5.80;;;16.30;99.90;;;;;;6238568;22;20166;-90
2021/07/26 02:50:41;;;;;;;6.70;5.67;;;16.30;99.90;;;;;;6265041;22;20170;-90
2021/07/26 02:53:06;;;;;;;6.90;5.37;;;16.30;99.90;;;;;;6265344;22;20381;-91
2021/07/26 02:55:32;;;;;;;7.97;6.27;;;16.30;99.90;;;;;;6240096;22;20169;-91
2021/07/26 02:57:58;;;;;;;6.60;5.90;;;16.40;99.90;;;;;;6267661;22;20158;-91
2021/07/26 03:00:24;;;;;;;9.30;6.53;;;16.40;99.90;;;;;;6238132;22;20245;-91
2021/07/26 03:02:53;;;;;;;6.40;5.80;;;16.40;99.90;;;;;;6265204;22;20193;-90
2021/07/26 03:05:19;;;;;;;7.60;6.90;;;16.40;99.90;;;;;;6237575;22;20159;-90
2021/07/26 03:07:47;;;;;;;6.63;5.90;;;16.30;99.90;;;;;;6262853;22;20748;-91
2021/07/26 03:10:22;;;;;;;6.03;5.43;;;16.40;99.90;;;;;;6238762;22;20396;-90
2021/07/26 03:12:54;;;;;;;7.27;6.10;;;16.40;99.90;;;;;;6238472;22;20813;-90
2021/07/26 03:15:21;;;;;;;6.60;5.83;;;16.60;99.90;;;;;;6237661;22;20421;-90
2021/07/26 03:17:47;;;;;;;5.33;4.93;;;16.60;99.90;;;;;;6238461;22;20397;-91
2021/07/26 03:20:13;;;;;;;6.00;5.43;;;16.60;99.90;;;;;;6236906;22;20393;-91
2021/07/26 03:23:05;;;;;;;6.30;5.27;;;16.60;99.90;;;;;;6238129;22;21113;-90
2021/07/26 03:25:32;;;;;;;6.10;5.50;;;16.60;99.90;;;;;;6238684;22;20184;-90
2021/07/26 03:27:59;;;;;;;8.00;5.50;;;16.50;99.90;;;;;;6265679;22;20388;-90
2021/07/26 03:30:24;;;;;;;7.00;5.30;;;16.50;99.90;;;;;;6263926;22;20459;-90
2021/07/26 03:32:51;;;;;;;6.50;5.67;;;16.60;99.90;;;;;;6261141;22;20459;-90
2021/07/26 03:35:18;;;;;;;6.13;4.73;;;16.60;99.90;;;;;;6239082;22;20173;-91
2021/07/26 03:37:44;;;;;;;6.10;5.50;;;16.60;99.90;;;;;;6266311;22;20867;-91
2021/07/26 03:40:10;;;;;;;5.93;5.43;;;16.60;99.90;;;;;;6239442;22;20436;-91
2021/07/26 03:42:37;;;;;;;5.40;4.90;;;16.60;99.90;;;;;;6263075;22;20193;-90
2021/07/26 03:45:07;;;;;;;7.57;4.87;;;16.50;99.90;;;;;;6266994;22;20381;-91
2021/07/26 03:47:34;;;;;;;5.60;5.10;;;16.50;99.90;;;;;;6237443;22;20420;-92
2021/07/26 03:49:59;;;;;;;5.67;5.20;;;16.50;99.90;;;;;;6238810;22;20398;-91
2021/07/26 03:52:25;;;;;;;5.30;4.80;;;16.50;99.90;;;;;;6265684;22;20386;-91
2021/07/26 03:54:54;;;;;;;5.80;5.03;;;16.50;99.90;;;;;;6265734;22;20216;-90
2021/07/26 03:57:20;;;;;;;7.37;5.40;;;16.50;99.90;;;;;;6237921;22;20167;-90
2021/07/26 03:59:46;;;;;;;5.57;5.07;;;16.50;99.90;;;;;;6262868;22;20497;-91
2021/07/26 04:02:11;;;;;;;5.70;4.83;;;16.60;99.90;;;;;;6236561;22;21031;-90
2021/07/26 04:04:37;;;;;;;7.03;5.63;;;16.70;99.90;;;;;;6264949;22;20233;-90
2021/07/26 04:07:08;;;;;;;7.17;4.97;;;16.70;99.90;;;;;;6264306;22;20150;-90
2021/07/26 04:09:38;;;;;;;5.23;4.73;;;16.60;99.90;;;;;;6263222;22;20162;-91
2021/07/26 04:12:09;;;;;;;5.20;4.67;;;16.70;99.90;;;;;;6264169;22;20466;-92
2021/07/26 04:14:38;;;;;;;6.10;5.00;;;16.80;99.90;;;;;;6265254;22;20654;-91
2021/07/26 04:17:04;;;;;;;5.43;5.03;;;16.80;99.90;;;;;;6235443;22;20918;-91
2021/07/26 04:19:31;;;;;;;6.23;5.33;;;16.80;99.90;;;;;;6238093;22;20925;-91
2021/07/26 04:21:57;;;;;;;6.27;5.27;;;16.70;99.90;;;;;;6263836;22;20221;-92
2021/07/26 04:24:23;;;;;;;7.00;5.43;;;16.80;99.90;;;;;;6265491;22;20767;-92
2021/07/26 04:26:50;;;;;;;5.37;4.60;;;16.80;99.90;;;;;;6264327;22;20411;-90
2021/07/26 04:29:16;;;;;;;8.77;5.40;;;16.80;99.90;;;;;;6264962;22;20177;-91
2021/07/26 04:31:43;;;;;;;7.00;5.33;;;16.80;99.90;;;;;;6238579;22;20409;-91
2021/07/26 04:34:10;;;;;;;5.93;5.43;;;16.80;99.90;;;;;;6264579;22;20793;-91
2021/07/26 04:36:35;;;;;;;4.53;4.13;;;16.60;99.90;;;;;;6238060;22;20415;-90
2021/07/26 04:39:01;;;;;;;5.47;4.97;;;16.60;99.90;;;;;;6264769;22;20467;-92
2021/07/26 04:41:27;;;;;;;10.37;5.47;;;16.50;99.90;;;;;;6233988;22;20189;-92
2021/07/26 04:43:52;;;;;;;5.97;4.90;;;16.50;99.90;;;;;;6266380;22;20154;-92
2021/07/26 04:46:18;;;;;;;4.70;4.30;;;16.50;99.90;;;;;;6264617;22;20151;-91
2021/07/26 04:48:44;;;;;;;6.37;4.70;;;16.50;99.90;;;;;;6265368;22;20177;-91
2021/07/26 04:51:29;;;;;;;6.60;4.87;;;16.50;99.90;;;;;;6279702;22;20230;-96
2021/07/26 04:57:19;;;;;;;6.30;5.40;;;16.50;99.90;;;;;;6115896;23;20386;-96
2021/07/26 05:03:03;;;;;;;7.30;5.70;;;16.40;99.90;;;;;;6261731;22;20449;-95
2021/07/26 06:32:17;;;;;;;5.80;5.20;;;18.80;99.90;;;;;;6266361;22;20435;-92
2021/07/26 06:34:42;;;;;;;10.67;6.00;;;18.90;99.90;;;;;;6239276;22;20393;-89
2021/07/26 10:56:11;;;;;;;3.43;3.17;;;26.60;93.10;;;;;;6265983;22;20433;-89
2021/07/26 10:59:05;;;;;;;3.40;3.20;;;26.40;93.70;;;;;;6267478;22;20515;-92
2021/07/26 11:01:31;;;;;;;3.73;3.43;;;26.80;93.20;;;;;;6239811;22;20979;-91
2021/07/26 11:03:57;;;;;;;3.27;2.93;;;27.20;95.70;;;;;;6268653;22;20393;-92
2021/07/26 11:06:37;;;;;;;3.70;3.40;;;27.30;94.60;;;;;;6240692;22;20155;-91
2021/07/26 11:09:34;;;;;;;3.53;3.30;;;27.40;93.50;;;;;;6267515;22;20458;-91
2021/07/26 11:12:10;;;;;;;3.50;3.20;;;27.50;92.00;;;;;;6242555;22;20385;-90
2021/07/26 11:14:41;;;;;;;4.73;3.90;;;27.40;94.90;;;;;;6264245;22;20478;-90
2021/07/26 11:17:08;;;;;;;3.63;3.43;;;27.90;93.60;;;;;;6238841;22;20734;-89
2021/07/26 11:19:36;;;;;;;3.57;3.27;;;28.20;93.10;;;;;;6239513;22;20455;-89
2021/07/26 11:22:21;;;;;;;3.40;3.20;;;27.80;91.20;;;;;;6267176;22;20440;-88
2021/07/26 11:24:49;;;;;;;3.50;3.20;;;28.10;91.00;;;;;;6268027;22;20456;-90
2021/07/26 11:27:38;;;;;;;4.30;4.00;;;28.20;92.00;;;;;;6240519;22;20392;-91
2021/07/26 11:30:11;;;;;;;3.70;3.40;;;28.30;93.40;;;;;;6250589;22;20400;-91
2021/07/26 11:32:41;;;;;;;3.50;3.20;;;28.60;92.90;;;;;;6265251;22;20400;-88
2021/07/26 11:35:07;;;;;;;5.77;5.13;;;29.00;91.60;;;;;;6268856;22;20463;-91
2021/07/26 11:37:37;;;;;;;4.07;3.67;;;29.60;93.00;;;;;;6266560;22;20419;-91
2021/07/26 11:40:05;;;;;;;3.20;3.00;;;30.10;88.80;;;;;;6266441;22;20385;-91
2021/07/26 11:42:35;;;;;;;3.50;3.20;;;29.50;83.20;;;;;;6267940;22;20440;-91
2021/07/26 11:45:02;;;;;;;3.70;3.40;;;29.20;85.00;;;;;;6267585;22;20937;-90
2021/07/26 11:47:34;;;;;;;4.47;3.37;;;27.30;88.90;;;;;;6241490;22;20704;-91
2021/07/26 11:50:03;;;;;;;4.90;3.80;;;26.80;91.70;;;;;;6268001;22;20460;-91
2021/07/26 11:52:31;;;;;;;3.60;3.27;;;26.60;91.30;;;;;;6266098;22;20389;-90
2021/07/26 11:54:56;;;;;;;3.63;3.40;;;26.90;91.60;;;;;;6240283;22;20424;-89
2021/07/26 11:57:22;;;;;;;4.13;3.83;;;26.80;92.60;;;;;;6242144;22;20434;-92
2021/07/26 11:59:52;;;;;;;3.90;3.60;;;26.80;91.50;;;;;;6241441;22;20154;-92
2021/07/26 12:02:27;;;;;;;3.03;2.83;;;26.70;91.20;;;;;;6239911;22;20201;-93
2021/07/26 12:04:54;;;;;;;3.20;3.00;;;26.50;92.10;;;;;;6243244;22;20392;-92
2021/07/26 12:07:48;;;;;;;6.13;3.70;;;26.40;91.80;;;;;;6240426;22;20433;-92
2021/07/26 12:10:36;;;;;;;4.10;3.80;;;26.30;93.20;;;;;;6267131;22;20563;-93
2021/07/26 12:13:22;;;;;;;3.93;3.27;;;25.80;92.60;;;;;;6239665;22;20420;-90
2021/07/26 12:15:49;;;;;;;4.00;3.70;;;25.50;93.20;;;;;;6268192;22;20383;-92
2021/07/26 12:18:17;;;;;;;3.87;3.57;;;25.30;93.60;;;;;;6269283;22;20376;-91
2021/07/26 12:20:57;;;;;;;5.73;3.57;;;25.30;93.20;;;;;;6241337;22;20875;-91
2021/07/26 12:23:25;;;;;;;4.23;3.80;;;25.20;93.60;;;;;;6268161;22;20468;-91
2021/07/26 12:26:00;;;;;;;4.47;4.13;;;25.00;93.90;;;;;;6268299;22;20401;-91
2021/07/26 12:28:50;;;;;;;4.10;3.80;;;24.80;94.50;;;;;;6266701;22;21034;-91
2021/07/26 12:31:35;;;;;;;3.60;3.30;;;24.70;95.00;;;;;;6241025;22;20427;-93
2021/07/26 12:34:26;;;;;;;3.73;3.43;;;24.60;95.60;;;;;;6242340;22;20392;-91
2021/07/26 12:36:56;;;;;;;4.37;3.97;;;24.60;95.60;;;;;;6248719;22;20403;-91
2021/07/26 12:39:44;;;;;;;4.00;3.70;;;24.60;95.10;;;;;;6268353;22;20384;-92
2021/07/26 12:42:27;;;;;;;4.13;3.73;;;24.50;95.40;;;;;;6280024;22;20428;-92
2021/07/26 12:45:15;;;;;;;4.27;3.97;;;24.30;98.40;;;;;;6245380;22;20823;-92
2021/07/26 12:47:56;;;;;;;;;;;;;;;;;;;;;
2021/07/26 12:50:22;;;;;;;4.30;3.90;;;24.10;97.90;;;;;;6294572;22;20389;-91
2021/07/26 12:52:48;;;;;;;4.20;3.70;;;24.10;97.70;;;;;;6266718;22;20404;-90
2021/07/26 13:37:30;;;;;;;5.20;4.70;;;23.50;99.90;;;;;;6298303;22;20607;-88
2021/07/26 13:40:16;;;;;;;5.33;4.07;;;23.70;99.90;;;;;;6271793;22;20761;-88
2021/07/26 13:42:42;;;;;;;5.43;4.33;;;23.50;99.90;;;;;;6271344;22;20477;-88
2021/07/26 13:45:09;;;;;;;4.20;3.90;;;23.50;99.90;;;;;;6272413;22;20426;-88
2021/07/26 13:47:36;;;;;;;4.23;3.83;;;23.40;99.90;;;;;;6301938;22;20381;-90
2021/07/26 13:50:02;;;;;;;7.40;3.90;;;23.10;99.90;;;;;;6275925;22;20384;-89
2021/07/26 13:53:05;;;;;;;3.97;3.67;;;22.30;99.90;;;;;;6306044;22;20455;-89
2021/07/26 13:55:31;;;;;;;7.47;3.83;;;21.90;99.90;;;;;;6151105;23;20400;-88
2021/07/26 13:58:00;;;;;;;3.83;3.53;;;22.00;99.90;;;;;;6253922;22;20415;-89
2021/07/26 14:00:30;;;;;;;4.27;3.93;;;21.90;99.90;;;;;;6302000;22;20392;-89
2021/07/26 14:03:04;;;;;;;4.53;4.10;;;21.70;99.90;;;;;;6274067;22;20511;-88
2021/07/26 14:05:58;;;;;;;4.03;3.60;;;21.70;99.90;;;;;;6273343;22;20391;-89
2021/07/26 14:08:24;;;;;;;4.50;3.57;;;21.60;99.90;;;;;;6270584;22;20441;-87
2021/07/26 14:10:53;;;;;;;4.30;3.90;;;21.50;99.90;;;;;;6271945;22;20388;-88
2021/07/26 14:13:31;;;;;;;4.00;3.50;;;21.40;99.90;;;;;;6297562;22;20218;-87
2021/07/26 14:15:59;;;;;;;4.83;4.40;;;21.20;99.90;;;;;;6272784;22;20380;-88
2021/07/26 14:18:30;;;;;;;4.43;4.00;;;21.20;99.90;;;;;;6271175;22;20396;-88
2021/07/26 14:20:56;;;;;;;4.80;4.30;;;21.20;99.90;;;;;;6296849;22;20384;-88
2021/07/26 14:23:29;;;;;;;7.00;4.50;;;21.20;99.90;;;;;;6295941;22;20513;-88
2021/07/26 14:25:54;;;;;;;5.10;4.60;;;21.20;99.90;;;;;;6295236;22;20376;-88
2021/07/26 14:28:20;;;;;;;5.17;4.77;;;21.20;99.90;;;;;;6292322;22;20722;-88
2021/07/26 14:30:55;;;;;;;4.70;4.30;;;21.20;99.90;;;;;;6295898;22;20515;-89
2021/07/26 14:33:32;;;;;;;4.53;3.80;;;21.30;99.90;;;;;;6282349;22;21368;-88
2021/07/26 14:43:58;;;;;;;12.20;4.50;;;21.80;99.90;;;;;;6297865;22;20443;-88
2021/07/26 14:46:41;;;;;;;6.00;4.13;;;21.70;99.90;;;;;;6271049;22;20740;-87
2021/07/26 14:49:07;;;;;;;5.10;4.20;;;21.50;99.90;;;;;;6288954;22;20955;-87
2021/07/26 14:51:36;;;;;;;4.60;4.20;;;21.20;99.90;;;;;;6293611;22;20443;-86
2021/07/26 14:54:02;;;;;;;4.87;4.47;;;21.00;99.90;;;;;;6242664;22;20457;-87
2021/07/26 14:59:37;;;;;;;4.13;2.53;;;19.70;99.90;;;;;;6252889;22;20377;-89
2021/07/26 15:02:03;;;;;;;3.80;2.80;;;18.80;99.90;;;;;;6238072;22;20425;-88
2021/07/26 15:04:30;;;;;;;3.40;2.97;;;18.50;99.90;;;;;;6264657;22;20393;-88
2021/07/26 15:06:59;;;;;;;3.47;2.67;;;18.60;99.90;;;;;;6235323;22;20482;-88
2021/07/26 15:09:24;;;;;;;3.10;2.70;;;18.60;99.90;;;;;;6237231;22;20910;-89
2021/07/26 15:11:54;;;;;;;3.23;2.93;;;18.40;99.90;;;;;;6265914;22;20430;-90
2021/07/26 15:14:19;;;;;;;4.00;3.70;;;18.40;99.90;;;;;;6261592;22;20161;-86
2021/07/26 15:16:46;;;;;;;3.43;3.13;;;18.50;99.90;;;;;;6264354;22;20389;-88
2021/07/26 15:19:15;;;;;;;6.30;3.03;;;18.70;99.90;;;;;;6230964;22;20165;-90
2021/07/26 15:21:42;;;;;;;3.27;3.07;;;18.80;99.90;;;;;;6239638;22;20431;-87
2021/07/26 15:24:08;;;;;;;3.70;3.40;;;18.90;99.90;;;;;;6239194;22;20429;-89
2021/07/26 15:26:37;;;;;;;3.13;2.83;;;19.00;99.90;;;;;;6240196;22;20434;-89
2021/07/26 15:29:03;;;;;;;7.80;3.07;;;19.40;99.90;;;;;;6265337;22;20400;-88
2021/07/26 15:31:29;;;;;;;5.83;3.20;;;19.70;99.90;;;;;;6237741;22;20393;-88
2021/07/26 15:33:55;;;;;;;4.40;2.90;;;19.80;99.90;;;;;;6264258;22;20161;-88
2021/07/26 15:36:27;;;;;;;4.07;3.10;;;19.90;99.90;;;;;;6235219;22;20400;-87
2021/07/26 15:38:52;;;;;;;3.57;3.27;;;19.90;99.90;;;;;;6264917;22;20859;-88
2021/07/26 15:41:21;;;;;;;3.43;3.13;;;20.10;99.90;;;;;;6239395;22;20393;-88
2021/07/26 15:43:49;;;;;;;3.73;2.90;;;20.30;99.90;;;;;;6236687;22;20177;-88
2021/07/26 15:46:23;;;;;;;4.67;3.23;;;20.60;99.90;;;;;;6265067;22;20471;-88
2021/07/26 15:48:49;;;;;;;3.10;2.80;;;21.30;99.90;;;;;;6238238;22;20385;-88
2021/07/26 15:51:19;;;;;;;2.77;2.57;;;22.10;99.90;;;;;;6239231;22;20446;-87
2021/07/26 15:54:03;;;;;;;3.20;2.67;;;23.10;99.90;;;;;;6264313;22;20560;-88
2021/07/26 15:56:33;;;;;;;2.27;2.10;;;23.80;99.90;;;;;;6263221;22;20815;-87
2021/07/26 15:58:59;;;;;;;3.10;2.70;;;23.90;99.90;;;;;;6237834;22;20723;-87
2021/07/26 16:01:25;;;;;;;2.70;2.50;;;25.20;99.90;;;;;;6237504;22;20780;-86
2021/07/26 16:03:56;;;;;;;2.67;2.47;;;26.30;99.90;;;;;;6266812;22;20389;-88
2021/07/26 16:06:22;;;;;;;4.87;2.43;;;26.50;97.10;;;;;;6241708;22;20243;-87
2021/07/26 16:08:59;;;;;;;2.97;2.67;;;26.60;97.10;;;;;;6239813;22;20400;-87
2021/07/26 16:11:47;;;;;;;2.80;2.57;;;29.40;94.60;;;;;;6238834;22;20438;-89
2021/07/26 16:51:38;;;;;;;3.23;2.70;;;24.30;96.40;;;;;;6258731;22;20452;-88
2021/07/26 16:54:37;;;;;;;4.40;3.00;;;23.30;98.60;;;;;;6214878;22;20401;-87
2021/07/26 17:06:12;;;;;;;3.40;3.17;;;21.70;99.90;;;;;;6265627;22;20766;-89
2021/07/26 17:14:38;;;;;;;5.60;3.30;;;20.60;99.90;;;;;;6265806;22;20429;-88
2021/07/26 18:03:23;;;;;;;3.83;2.63;;;19.60;99.90;;;;;;6283301;22;20448;-87
2021/07/26 18:18:08;;;;;;;3.50;3.20;;;19.80;99.90;;;;;;6235832;22;20413;-87
2021/07/26 18:20:38;;;;;;;6.30;3.43;;;19.80;99.90;;;;;;6207596;23;20798;-86
2021/07/26 18:23:09;;;;;;;3.70;3.40;;;19.70;99.90;;;;;;6209969;23;20434;-86
2021/07/26 18:25:55;;;;;;;3.73;3.43;;;19.60;99.90;;;;;;6209017;23;20704;-87
2021/07/26 18:28:59;;;;;;;3.70;3.13;;;19.50;99.90;;;;;;6208589;23;20400;-87
2021/07/26 18:31:31;;;;;;;4.43;3.40;;;19.40;99.90;;;;;;6208873;23;20433;-89
2021/07/26 18:34:37;;;;;;;;;;;;;;;;;;;;;
2021/07/26 18:40:38;;;;;;;6.40;5.10;;;19.20;99.90;;;;;;6253333;22;20467;-88
2021/07/26 18:48:40;;;;;;;7.13;3.00;;;18.90;99.90;;;;;;6259371;22;20436;-86
2021/07/26 19:40:39;;;;;;;4.60;2.37;;;15.70;99.90;;;;;;6221282;22;20400;-89
